Carmen, Oklahoma
Current Conditions -  °F | °C
As of 11:10 AM on Friday 31 Oct 2014 (Local Time) from KAVK Reporting Station
Clear Clear  
Wind Chill: 38°   Ceiling: Unl
Heat Index: 45°   Visibility: 9mi
Dew Point: 32°   Wind: 15mph
Humidity: 61%   Direction: 40°NE
Pressure: 30.5"   Gusts: 26mph
Location:  36.58°N, 98.46°W
Report Text: KAVK 311610Z AUTO 04013G23KT 9SM CLR 07/00 A3050 RMK AO2
Loading
Personal Weather Stations






























Interactive Weather Map
Tropical Storm Tracking
New forecast layout! Learn more

10-Day Weather Forecast

Advertisements
Track Severe Weather on mobile